Time;durP1;ratioP1;P1;durP2;ratioP2;P2;SDS_P1;SDS_P2;PMS_P1;PMS_P2;Temp;Humidity;BMP_temperature;BMP_pressure;BME280_temperature;BME280_humidity;BME280_pressure;Samples;Min_cycle;Max_cycle;Signal;HPM_P1;HPM_P2
2023/10/22 00:02:17;;;;;;;4.90;1.10;;;12.70;99.90;;;;;;5071366;28;20396;-79
2023/10/22 00:04:44;;;;;;;8.10;1.10;;;12.70;99.90;;;;;;5071423;28;20041;-78
2023/10/22 00:07:14;;;;;;;3.67;1.35;;;12.60;99.90;;;;;;5054588;28;20521;-78
2023/10/22 00:09:41;;;;;;;2.78;0.85;;;12.60;99.90;;;;;;5070763;28;20043;-78
2023/10/22 00:12:08;;;;;;;5.22;1.08;;;12.60;99.90;;;;;;5045243;28;20029;-78
2023/10/22 00:14:35;;;;;;;8.50;1.30;;;12.60;99.90;;;;;;5071063;28;20052;-79
2023/10/22 00:17:01;;;;;;;3.60;0.98;;;12.60;99.90;;;;;;5051469;28;20041;-78
2023/10/22 00:19:28;;;;;;;4.43;1.20;;;12.50;99.90;;;;;;5043632;28;20090;-79
2023/10/22 00:21:55;;;;;;;7.75;1.23;;;12.50;99.90;;;;;;5038549;28;20034;-79
2023/10/22 00:24:21;;;;;;;3.78;1.02;;;12.30;99.90;;;;;;5034847;28;20046;-79
2023/10/22 00:26:48;;;;;;;3.58;1.00;;;12.40;99.90;;;;;;5051590;28;20497;-79
2023/10/22 00:29:14;;;;;;;3.97;1.20;;;12.30;99.90;;;;;;5043577;28;20038;-78
2023/10/22 00:31:41;;;;;;;5.75;1.02;;;12.40;99.90;;;;;;5063896;28;20037;-78
2023/10/22 00:34:08;;;;;;;3.65;1.00;;;12.40;99.90;;;;;;5061922;28;20120;-78
2023/10/22 00:36:34;;;;;;;4.63;1.20;;;12.30;99.90;;;;;;5054342;28;20076;-78
2023/10/22 00:39:01;;;;;;;3.92;1.10;;;12.40;99.90;;;;;;5053975;28;20716;-78
2023/10/22 00:41:28;;;;;;;4.43;1.20;;;12.40;99.90;;;;;;5053650;28;20072;-78
2023/10/22 00:43:55;;;;;;;5.47;1.30;;;12.40;99.90;;;;;;5053837;28;20063;-79
2023/10/22 00:46:24;;;;;;;3.85;1.30;;;12.40;99.90;;;;;;5053708;28;20063;-78
2023/10/22 00:48:52;;;;;;;3.00;1.13;;;12.40;99.90;;;;;;5066817;28;20146;-79
2023/10/22 00:51:19;;;;;;;4.55;1.58;;;12.40;99.90;;;;;;5053898;28;20391;-78
2023/10/22 00:53:47;;;;;;;4.85;1.08;;;12.40;99.90;;;;;;5069304;28;20048;-78
2023/10/22 00:56:15;;;;;;;5.35;0.98;;;13.00;99.90;;;;;;5034155;28;20811;-79
2023/10/22 00:58:42;;;;;;;6.00;1.10;;;12.40;99.90;;;;;;5047007;28;20053;-78
2023/10/22 01:01:12;;;;;;;5.72;1.23;;;12.40;99.90;;;;;;5042930;28;20099;-78
2023/10/22 01:03:42;;;;;;;8.80;1.92;;;12.40;99.90;;;;;;5050066;28;20069;-79
2023/10/22 01:06:09;;;;;;;3.00;1.15;;;12.40;99.90;;;;;;5034000;28;20125;-78
2023/10/22 01:08:36;;;;;;;4.20;1.00;;;12.60;99.90;;;;;;5040606;28;20144;-78
2023/10/22 01:11:10;;;;;;;5.43;1.02;;;12.40;99.90;;;;;;5053519;28;20037;-79
2023/10/22 01:13:39;;;;;;;4.68;0.95;;;12.50;99.90;;;;;;5053483;28;20059;-78
2023/10/22 01:16:08;;;;;;;4.07;1.10;;;12.40;99.90;;;;;;5049947;28;20076;-78
2023/10/22 01:18:35;;;;;;;5.38;1.00;;;12.40;99.90;;;;;;5044386;28;20033;-78
2023/10/22 01:21:03;;;;;;;3.80;0.85;;;12.40;99.90;;;;;;5053197;28;20076;-79
2023/10/22 01:23:36;;;;;;;4.07;1.13;;;12.40;99.90;;;;;;5053559;28;20080;-78
2023/10/22 01:26:07;;;;;;;3.20;0.88;;;12.50;99.90;;;;;;5053019;28;20403;-78
2023/10/22 01:28:35;;;;;;;4.43;1.00;;;12.50;99.90;;;;;;5052854;28;20150;-78
2023/10/22 01:31:05;;;;;;;4.40;1.35;;;12.50;99.90;;;;;;5040888;28;20036;-78
2023/10/22 01:33:32;;;;;;;5.10;1.25;;;12.50;99.90;;;;;;5067815;28;20494;-78
2023/10/22 01:35:58;;;;;;;2.50;0.82;;;12.50;99.90;;;;;;5058094;28;20056;-78
2023/10/22 01:38:25;;;;;;;5.82;1.10;;;12.60;99.90;;;;;;5051271;28;20037;-78
2023/10/22 01:40:52;;;;;;;3.28;0.80;;;12.50;99.90;;;;;;5069500;28;20041;-78
2023/10/22 01:43:18;;;;;;;6.97;0.93;;;12.50;99.90;;;;;;5061171;28;20037;-78
2023/10/22 01:45:48;;;;;;;4.00;0.88;;;12.50;99.90;;;;;;5044870;28;20558;-79
2023/10/22 01:48:14;;;;;;;6.30;1.02;;;12.50;99.90;;;;;;5047016;28;20116;-79
2023/10/22 01:50:41;;;;;;;3.88;1.02;;;12.50;99.90;;;;;;5060944;28;20120;-78
2023/10/22 01:53:08;;;;;;;5.10;1.00;;;12.50;99.90;;;;;;5042553;28;20434;-78
2023/10/22 01:55:34;;;;;;;3.75;1.00;;;12.60;99.90;;;;;;5050718;28;20063;-79
2023/10/22 01:58:01;;;;;;;3.58;1.02;;;12.70;99.90;;;;;;5041985;28;20553;-78
2023/10/22 02:00:28;;;;;;;3.75;1.25;;;12.50;99.90;;;;;;5067205;28;20106;-78
2023/10/22 02:02:54;;;;;;;6.57;1.10;;;12.60;99.90;;;;;;5040904;28;20049;-79
2023/10/22 02:05:21;;;;;;;3.70;0.88;;;12.50;99.90;;;;;;5049808;28;20120;-78
2023/10/22 02:07:48;;;;;;;2.72;0.77;;;12.50;99.90;;;;;;5053150;28;20033;-78
2023/10/22 02:10:14;;;;;;;3.00;0.80;;;12.60;99.90;;;;;;5052795;28;20044;-78
2023/10/22 02:12:41;;;;;;;3.58;0.90;;;12.60;99.90;;;;;;5058094;28;20049;-78
2023/10/22 02:15:08;;;;;;;3.60;0.82;;;12.60;99.90;;;;;;5038306;28;20037;-78
2023/10/22 02:17:35;;;;;;;4.15;0.80;;;12.60;99.90;;;;;;5052151;28;20086;-78
2023/10/22 02:20:02;;;;;;;3.88;0.90;;;12.60;99.90;;;;;;5052528;28;20452;-78
2023/10/22 02:22:29;;;;;;;3.30;0.82;;;12.60;99.90;;;;;;5039318;28;20171;-78
2023/10/22 02:24:56;;;;;;;2.60;0.68;;;12.60;99.90;;;;;;5069093;28;20041;-78
2023/10/22 02:27:23;;;;;;;2.33;0.73;;;12.60;99.90;;;;;;5039861;28;20510;-78
2023/10/22 02:29:49;;;;;;;2.85;0.85;;;12.60;99.90;;;;;;5068875;28;20033;-79
2023/10/22 02:32:16;;;;;;;2.67;0.82;;;12.70;99.90;;;;;;5039856;28;20118;-78
2023/10/22 02:34:43;;;;;;;5.72;0.90;;;12.60;99.90;;;;;;5052408;28;20037;-78
2023/10/22 02:37:10;;;;;;;4.13;1.08;;;12.70;99.90;;;;;;5040563;28;20037;-78
2023/10/22 02:39:36;;;;;;;3.97;0.90;;;12.60;99.90;;;;;;5045125;28;20041;-78
2023/10/22 02:42:03;;;;;;;3.63;0.80;;;12.50;99.90;;;;;;5054654;28;20091;-77
2023/10/22 02:44:30;;;;;;;2.90;0.65;;;12.50;99.90;;;;;;5072005;28;20047;-78
2023/10/22 02:46:59;;;;;;;4.45;0.88;;;12.40;99.90;;;;;;5072642;28;20124;-78
2023/10/22 02:49:25;;;;;;;4.25;0.90;;;12.40;99.90;;;;;;5056053;28;20120;-78
2023/10/22 02:51:53;;;;;;;3.30;0.90;;;12.40;99.90;;;;;;5049872;28;20116;-78
2023/10/22 02:54:19;;;;;;;4.20;1.20;;;12.30;99.90;;;;;;5049857;28;20090;-78
2023/10/22 02:56:46;;;;;;;6.15;0.90;;;12.40;99.90;;;;;;5072506;28;20037;-78
2023/10/22 02:59:14;;;;;;;5.22;0.98;;;12.60;99.90;;;;;;5041588;28;20068;-78
2023/10/22 03:01:41;;;;;;;5.28;1.00;;;12.80;99.90;;;;;;5072253;28;20128;-78
2023/10/22 03:04:07;;;;;;;4.90;1.10;;;12.30;99.90;;;;;;5052397;28;20456;-78
2023/10/22 03:06:34;;;;;;;3.55;1.17;;;12.20;99.90;;;;;;5047134;28;20453;-78
2023/10/22 03:09:00;;;;;;;3.25;0.80;;;12.30;99.90;;;;;;5072566;28;20032;-78
2023/10/22 03:11:27;;;;;;;4.60;1.00;;;12.30;99.90;;;;;;5055610;28;20091;-78
2023/10/22 03:13:54;;;;;;;3.58;0.80;;;12.30;99.90;;;;;;5055450;28;20777;-78
2023/10/22 03:16:20;;;;;;;4.22;0.90;;;12.30;99.90;;;;;;5049934;28;20076;-78
2023/10/22 03:18:47;;;;;;;5.97;0.80;;;12.30;99.90;;;;;;5064900;28;20047;-78
2023/10/22 03:21:16;;;;;;;3.83;0.80;;;12.30;99.90;;;;;;5055911;28;20052;-78
2023/10/22 03:23:43;;;;;;;4.03;0.85;;;12.30;99.90;;;;;;5042584;28;20046;-78
2023/10/22 03:26:13;;;;;;;4.18;0.85;;;12.30;99.90;;;;;;5042605;28;20449;-78
2023/10/22 03:28:39;;;;;;;4.53;0.90;;;12.40;99.90;;;;;;5071591;28;20387;-78
2023/10/22 03:31:06;;;;;;;2.63;0.80;;;12.30;99.90;;;;;;5071964;28;20090;-78
2023/10/22 03:33:33;;;;;;;4.90;0.90;;;12.30;99.90;;;;;;5055285;28;20551;-78
2023/10/22 03:36:00;;;;;;;5.97;0.90;;;12.30;99.90;;;;;;5055402;28;20063;-78
2023/10/22 03:38:27;;;;;;;3.17;0.88;;;12.30;99.90;;;;;;5055278;28;20045;-78
2023/10/22 03:40:58;;;;;;;4.13;1.20;;;12.30;99.90;;;;;;5055311;28;20494;-78
2023/10/22 03:43:28;;;;;;;3.72;0.70;;;12.20;99.90;;;;;;5071524;28;20128;-79
2023/10/22 03:45:55;;;;;;;3.92;0.85;;;12.30;99.90;;;;;;5055563;28;20052;-78
2023/10/22 03:48:25;;;;;;;4.45;0.80;;;12.30;99.90;;;;;;5054795;28;20083;-78
2023/10/22 03:50:52;;;;;;;2.97;1.20;;;12.30;99.90;;;;;;5059663;28;20069;-78
2023/10/22 03:53:19;;;;;;;3.05;0.88;;;12.30;99.90;;;;;;5053516;28;20139;-79
2023/10/22 03:55:48;;;;;;;3.35;0.80;;;12.40;99.90;;;;;;5055079;28;20083;-78
2023/10/22 03:58:15;;;;;;;5.00;1.00;;;12.40;99.90;;;;;;5054100;28;20068;-78
2023/10/22 04:00:41;;;;;;;4.60;0.80;;;12.30;99.90;;;;;;5071133;28;20060;-79
2023/10/22 04:03:08;;;;;;;4.05;1.10;;;12.40;99.90;;;;;;5059418;28;20531;-78
2023/10/22 04:05:35;;;;;;;3.08;1.00;;;12.40;99.90;;;;;;5053402;28;20063;-78
2023/10/22 04:08:01;;;;;;;1.83;0.57;;;12.40;99.90;;;;;;5058389;28;20041;-78
2023/10/22 04:10:28;;;;;;;4.13;0.93;;;12.40;99.90;;;;;;5064428;28;20038;-78
2023/10/22 04:12:55;;;;;;;1.98;0.60;;;12.40;99.90;;;;;;5048043;28;20049;-78
2023/10/22 04:15:21;;;;;;;3.80;0.82;;;12.40;99.90;;;;;;5047910;28;20069;-78
2023/10/22 04:17:48;;;;;;;1.90;0.65;;;12.40;99.90;;;;;;5052075;28;20133;-78
2023/10/22 04:20:16;;;;;;;1.45;0.65;;;12.50;99.90;;;;;;5054424;28;20131;-78
2023/10/22 04:22:43;;;;;;;5.50;0.90;;;12.40;99.90;;;;;;5066038;28;20068;-78
2023/10/22 04:25:10;;;;;;;1.90;0.70;;;12.50;99.90;;;;;;5046297;28;20031;-78
2023/10/22 04:27:37;;;;;;;3.95;0.80;;;12.40;99.90;;;;;;5054152;28;20032;-78
2023/10/22 04:30:04;;;;;;;2.60;0.98;;;12.40;99.90;;;;;;5054403;28;20091;-78
2023/10/22 04:32:35;;;;;;;3.83;1.15;;;12.40;99.90;;;;;;5054587;28;20052;-78
2023/10/22 04:35:02;;;;;;;2.97;0.90;;;12.30;99.90;;;;;;5054382;28;20049;-78
2023/10/22 04:37:28;;;;;;;2.25;0.63;;;12.30;99.90;;;;;;5047096;28;20419;-78
2023/10/22 04:39:56;;;;;;;2.50;0.80;;;12.40;99.90;;;;;;5047978;28;20043;-78
2023/10/22 04:42:24;;;;;;;2.65;0.80;;;12.30;99.90;;;;;;5053642;28;20037;-78
2023/10/22 04:44:53;;;;;;;2.03;0.90;;;12.20;99.90;;;;;;5069247;28;20082;-78
2023/10/22 04:47:21;;;;;;;1.15;0.70;;;12.20;99.90;;;;;;5034284;28;20037;-78
2023/10/22 04:49:49;;;;;;;3.35;0.77;;;12.20;99.90;;;;;;5051938;28;20051;-78
2023/10/22 04:52:31;;;;;;;3.80;1.00;;;12.20;99.90;;;;;;5050514;28;20037;-78
2023/10/22 04:54:59;;;;;;;3.13;0.70;;;12.20;99.90;;;;;;5035530;28;20048;-78
2023/10/22 04:57:27;;;;;;;2.58;0.90;;;12.20;99.90;;;;;;5034134;28;20044;-78
2023/10/22 04:59:53;;;;;;;2.45;1.00;;;12.20;99.90;;;;;;5033929;28;20049;-78
2023/10/22 05:02:20;;;;;;;3.25;0.80;;;12.20;99.90;;;;;;5039003;28;20048;-78
2023/10/22 05:04:47;;;;;;;3.65;0.90;;;12.10;99.90;;;;;;5042904;28;20180;-78
2023/10/22 05:07:14;;;;;;;3.33;0.95;;;12.10;99.90;;;;;;5037349;28;20044;-78
2023/10/22 05:09:42;;;;;;;2.75;0.95;;;12.10;99.90;;;;;;5066409;28;20034;-78
2023/10/22 05:12:09;;;;;;;3.25;0.90;;;12.10;99.90;;;;;;5046552;28;20376;-78
2023/10/22 05:14:36;;;;;;;1.63;0.80;;;12.00;99.90;;;;;;5043638;28;20099;-78
2023/10/22 05:17:04;;;;;;;2.45;0.95;;;12.10;99.90;;;;;;5052251;28;20053;-78
2023/10/22 05:19:31;;;;;;;2.58;0.90;;;12.00;99.90;;;;;;5066231;28;20081;-78
2023/10/22 05:21:58;;;;;;;2.50;0.88;;;12.00;99.90;;;;;;5050939;28;20076;-78
2023/10/22 05:24:25;;;;;;;2.83;0.93;;;12.00;99.90;;;;;;5034228;28;20038;-79
2023/10/22 05:26:52;;;;;;;3.20;0.90;;;12.00;99.90;;;;;;5038118;28;20029;-79
2023/10/22 05:29:19;;;;;;;3.85;1.00;;;11.90;99.90;;;;;;5049156;28;20037;-78
2023/10/22 05:31:46;;;;;;;2.58;0.90;;;11.90;99.90;;;;;;5054359;28;20044;-78
2023/10/22 05:34:12;;;;;;;3.88;1.00;;;12.00;99.90;;;;;;5049943;28;20077;-78
2023/10/22 05:36:39;;;;;;;2.30;0.95;;;12.20;99.90;;;;;;5066203;28;20103;-78
2023/10/22 05:39:06;;;;;;;2.05;0.90;;;11.90;99.90;;;;;;5055275;28;20120;-78
2023/10/22 05:41:32;;;;;;;1.98;0.98;;;11.90;99.90;;;;;;5041704;28;20488;-78
2023/10/22 05:44:02;;;;;;;1.75;0.80;;;12.00;99.90;;;;;;5034071;28;20045;-78
2023/10/22 05:46:31;;;;;;;3.83;1.00;;;11.80;99.90;;;;;;5040258;28;20042;-78
2023/10/22 05:48:58;;;;;;;3.17;1.10;;;11.90;99.90;;;;;;5048244;28;20034;-78
2023/10/22 05:51:25;;;;;;;1.50;0.90;;;11.90;99.90;;;;;;5039307;28;20037;-78
2023/10/22 05:53:55;;;;;;;4.30;1.00;;;11.90;99.90;;;;;;5034993;28;20124;-78
2023/10/22 05:56:23;;;;;;;2.30;1.02;;;11.80;99.90;;;;;;5038452;28;20054;-78
2023/10/22 05:58:50;;;;;;;1.75;0.90;;;11.80;99.90;;;;;;5056290;28;20064;-79
2023/10/22 06:01:16;;;;;;;2.42;1.17;;;11.80;99.90;;;;;;5046204;28;20489;-78
2023/10/22 06:03:43;;;;;;;1.77;1.00;;;11.90;99.90;;;;;;5031689;28;20491;-78
2023/10/22 06:06:10;;;;;;;2.58;1.10;;;12.00;99.90;;;;;;5029593;28;20045;-79
2023/10/22 06:08:37;;;;;;;3.55;1.00;;;11.80;99.90;;;;;;5041780;28;20033;-79
2023/10/22 06:11:04;;;;;;;4.35;1.50;;;11.80;99.90;;;;;;5066284;28;20474;-78
2023/10/22 06:13:31;;;;;;;2.50;1.30;;;11.80;99.90;;;;;;5034638;28;20120;-79
2023/10/22 06:15:58;;;;;;;2.38;1.20;;;11.80;99.90;;;;;;5067328;28;20049;-78
2023/10/22 06:18:25;;;;;;;2.38;1.20;;;11.80;99.90;;;;;;5036133;28;20041;-79
2023/10/22 06:20:51;;;;;;;2.10;1.10;;;12.00;99.90;;;;;;5056147;28;20073;-79
2023/10/22 06:23:20;;;;;;;2.15;1.10;;;11.80;99.90;;;;;;5045574;28;20045;-79
2023/10/22 06:25:47;;;;;;;2.10;1.10;;;11.90;99.90;;;;;;5039656;28;20037;-78
2023/10/22 06:28:14;;;;;;;3.15;1.23;;;11.90;99.90;;;;;;5034793;28;20116;-79
2023/10/22 06:30:41;;;;;;;2.78;1.00;;;12.00;99.90;;;;;;5050590;28;20125;-79
2023/10/22 06:33:08;;;;;;;2.97;1.00;;;11.90;99.90;;;;;;5042524;28;20157;-79
2023/10/22 06:35:34;;;;;;;2.03;0.90;;;11.90;99.90;;;;;;5057843;28;20451;-80
2023/10/22 06:38:01;;;;;;;2.42;0.70;;;11.90;99.90;;;;;;5044042;28;20052;-79
2023/10/22 06:40:28;;;;;;;4.07;1.02;;;12.00;99.90;;;;;;5030212;28;20411;-78
2023/10/22 06:42:54;;;;;;;0.65;0.60;;;12.00;99.90;;;;;;5061547;28;20044;-78
2023/10/22 06:45:21;;;;;;;2.58;0.90;;;12.00;99.90;;;;;;5040028;28;20531;-79
2023/10/22 06:47:48;;;;;;;1.50;0.90;;;12.10;99.90;;;;;;5042068;28;20507;-79
2023/10/22 06:50:15;;;;;;;2.13;1.20;;;12.20;99.90;;;;;;5031373;28;20099;-78
2023/10/22 06:52:44;;;;;;;2.67;1.13;;;12.10;99.90;;;;;;5039075;28;20037;-78
2023/10/22 06:55:11;;;;;;;2.15;0.88;;;12.30;99.90;;;;;;5036650;28;20046;-78
2023/10/22 06:57:38;;;;;;;1.67;0.90;;;12.20;99.90;;;;;;5045825;28;20037;-78
2023/10/22 07:00:09;;;;;;;2.25;0.70;;;12.10;99.90;;;;;;5032357;28;20072;-78
2023/10/22 07:02:36;;;;;;;1.88;0.60;;;11.90;99.90;;;;;;5040396;28;20095;-78
2023/10/22 07:05:04;;;;;;;1.42;0.70;;;12.00;99.90;;;;;;5067852;28;20491;-78
2023/10/22 07:07:30;;;;;;;1.98;0.82;;;11.80;99.90;;;;;;5046513;28;20480;-78
2023/10/22 07:09:57;;;;;;;3.50;0.98;;;11.70;99.90;;;;;;5068372;28;20030;-79
2023/10/22 07:12:26;;;;;;;3.17;0.80;;;11.70;99.90;;;;;;5037754;28;20113;-79
2023/10/22 07:14:53;;;;;;;2.25;0.88;;;11.70;99.90;;;;;;5044515;28;20087;-79
2023/10/22 07:17:20;;;;;;;3.00;1.02;;;11.60;99.90;;;;;;5056114;28;20496;-78
2023/10/22 07:19:47;;;;;;;4.85;1.15;;;11.60;99.90;;;;;;5046868;28;20044;-78
2023/10/22 07:22:13;;;;;;;3.90;1.08;;;11.60;99.90;;;;;;5056531;28;20037;-78
2023/10/22 07:24:40;;;;;;;5.47;1.23;;;11.50;99.90;;;;;;5051337;28;20516;-77
2023/10/22 07:27:06;;;;;;;7.03;1.60;;;11.50;99.90;;;;;;5050162;28;20392;-78
2023/10/22 07:29:33;;;;;;;3.88;1.90;;;11.50;99.90;;;;;;5032031;28;20124;-78
2023/10/22 07:32:00;;;;;;;4.93;2.30;;;11.50;99.90;;;;;;5056332;28;20076;-78
2023/10/22 07:34:28;;;;;;;7.22;2.55;;;11.50;99.90;;;;;;5031623;28;20129;-78
2023/10/22 07:36:54;;;;;;;5.57;1.85;;;11.50;99.90;;;;;;5037184;28;20042;-77
2023/10/22 07:39:21;;;;;;;6.63;1.92;;;11.60;99.90;;;;;;5038210;28;20037;-78
2023/10/22 07:41:48;;;;;;;7.15;1.63;;;11.60;99.90;;;;;;5040731;28;20037;-78
2023/10/22 07:44:14;;;;;;;5.50;1.88;;;11.60;99.90;;;;;;5031611;28;20045;-77
2023/10/22 07:46:41;;;;;;;10.98;1.58;;;11.80;99.90;;;;;;5051540;28;20136;-78
2023/10/22 07:49:08;;;;;;;4.82;1.77;;;11.70;99.90;;;;;;5054527;28;20045;-77
2023/10/22 07:51:35;;;;;;;8.98;1.80;;;11.70;99.90;;;;;;5041994;28;20086;-78
2023/10/22 07:54:02;;;;;;;3.35;1.50;;;11.80;99.90;;;;;;5043462;28;20050;-77
2023/10/22 07:56:29;;;;;;;6.90;1.77;;;11.70;99.90;;;;;;5048718;28;20053;-77
2023/10/22 07:58:55;;;;;;;5.38;1.60;;;11.80;99.90;;;;;;5033402;28;20140;-79
2023/10/22 08:01:23;;;;;;;5.50;1.52;;;11.70;99.90;;;;;;5050210;28;20384;-78
2023/10/22 08:03:50;;;;;;;3.35;1.48;;;11.70;99.90;;;;;;5035153;28;20045;-79
2023/10/22 08:06:17;;;;;;;5.03;1.60;;;11.70;99.90;;;;;;5040271;28;20046;-79
2023/10/22 08:08:44;;;;;;;3.95;1.13;;;12.20;99.90;;;;;;5039085;28;20156;-79
2023/10/22 08:11:10;;;;;;;4.32;1.45;;;11.70;99.90;;;;;;5052519;28;20037;-79
2023/10/22 08:13:37;;;;;;;4.20;1.58;;;11.80;99.90;;;;;;5035862;28;20042;-78
2023/10/22 08:16:05;;;;;;;5.18;2.10;;;11.70;99.90;;;;;;5038870;28;20571;-78
2023/10/22 08:18:32;;;;;;;8.10;1.50;;;11.70;99.90;;;;;;5041411;28;20123;-79
2023/10/22 08:21:04;;;;;;;5.25;1.65;;;11.90;99.90;;;;;;5030701;28;20125;-79
2023/10/22 08:23:31;;;;;;;4.35;1.75;;;11.70;99.90;;;;;;5052350;28;20384;-78
2023/10/22 08:25:58;;;;;;;6.00;1.70;;;11.90;99.90;;;;;;5050711;28;20038;-79
2023/10/22 08:28:24;;;;;;;7.57;1.70;;;11.80;99.90;;;;;;5038963;28;20048;-79
2023/10/22 08:30:51;;;;;;;4.15;1.70;;;11.80;99.90;;;;;;5042781;28;20073;-78
2023/10/22 08:33:18;;;;;;;4.93;1.67;;;11.70;99.90;;;;;;5039827;28;20037;-79
2023/10/22 08:35:45;;;;;;;4.75;1.80;;;11.80;99.90;;;;;;5045104;28;20116;-79
2023/10/22 08:38:14;;;;;;;6.00;2.13;;;11.80;99.90;;;;;;5037786;28;20544;-78
2023/10/22 08:40:42;;;;;;;7.32;2.28;;;12.30;99.90;;;;;;5031025;28;20042;-78
2023/10/22 08:43:16;;;;;;;6.70;1.95;;;11.90;99.90;;;;;;5032111;28;20041;-79
2023/10/22 08:45:48;;;;;;;7.60;2.53;;;11.90;99.90;;;;;;5053192;28;20034;-79
2023/10/22 08:48:19;;;;;;;10.05;2.50;;;11.90;99.90;;;;;;5051670;28;20526;-79
2023/10/22 08:50:49;;;;;;;6.90;1.95;;;11.90;99.90;;;;;;5050403;28;20459;-78
2023/10/22 08:53:16;;;;;;;6.25;1.83;;;12.00;99.90;;;;;;5065386;28;20037;-78
2023/10/22 08:55:47;;;;;;;7.20;1.65;;;12.00;99.90;;;;;;5073732;28;20128;-78
2023/10/22 08:58:18;;;;;;;5.80;2.13;;;12.00;99.90;;;;;;5054091;28;20826;-78
2023/10/22 09:00:46;;;;;;;6.70;2.00;;;12.10;99.90;;;;;;5055451;28;20045;-78
2023/10/22 09:03:18;;;;;;;8.77;2.13;;;12.10;99.90;;;;;;5033875;28;20128;-78
2023/10/22 09:05:46;;;;;;;7.75;3.35;;;12.30;99.90;;;;;;5047060;28;20033;-78
2023/10/22 09:08:13;;;;;;;9.55;2.55;;;12.30;99.90;;;;;;5043265;28;20040;-78
2023/10/22 09:10:40;;;;;;;6.45;2.05;;;12.60;99.90;;;;;;5030288;28;20042;-79
2023/10/22 09:13:07;;;;;;;11.23;1.92;;;12.40;99.90;;;;;;5045256;28;20037;-78
2023/10/22 09:15:37;;;;;;;6.72;2.13;;;12.50;99.90;;;;;;5043389;28;20052;-79
2023/10/22 09:18:04;;;;;;;7.43;1.92;;;12.40;99.90;;;;;;5039205;28;20034;-78
2023/10/22 09:20:34;;;;;;;8.00;1.48;;;12.40;99.90;;;;;;5038108;28;20137;-78
2023/10/22 09:23:27;;;;;;;3.78;1.30;;;12.40;99.90;;;;;;5045116;28;20132;-79
2023/10/22 09:25:56;;;;;;;4.32;1.52;;;12.40;99.90;;;;;;5043336;28;20519;-79
2023/10/22 09:28:28;;;;;;;5.93;1.50;;;12.50;99.90;;;;;;5056172;28;20561;-79
2023/10/22 09:30:57;;;;;;;5.13;1.35;;;12.50;99.90;;;;;;5044023;28;20130;-79
2023/10/22 09:33:32;;;;;;;5.82;1.40;;;12.60;99.90;;;;;;5046455;28;20172;-79
2023/10/22 09:36:04;;;;;;;6.90;1.30;;;12.60;99.90;;;;;;5051475;28;20037;-79
2023/10/22 09:38:49;;;;;;;5.63;1.30;;;12.70;99.90;;;;;;5049792;28;20060;-79
2023/10/22 09:41:25;;;;;;;3.85;1.02;;;12.80;99.90;;;;;;5049979;28;20041;-79
2023/10/22 09:43:59;;;;;;;3.78;1.08;;;13.00;99.90;;;;;;5050357;28;20052;-79
2023/10/22 09:46:32;;;;;;;3.42;1.00;;;13.10;99.90;;;;;;5064093;28;20065;-78
2023/10/22 09:49:03;;;;;;;8.73;2.35;;;13.20;99.90;;;;;;5034070;28;20053;-79
2023/10/22 09:51:31;;;;;;;2.95;0.73;;;13.30;99.90;;;;;;5056092;28;20037;-79
2023/10/22 09:54:02;;;;;;;2.33;0.95;;;13.40;99.90;;;;;;5031388;28;20092;-79
2023/10/22 09:56:32;;;;;;;2.72;0.98;;;13.60;99.90;;;;;;5053761;28;20045;-79
2023/10/22 09:59:03;;;;;;;4.93;1.08;;;13.60;99.90;;;;;;5047038;28;20125;-79
2023/10/22 10:01:31;;;;;;;4.95;1.10;;;13.60;99.90;;;;;;5049128;28;20132;-79
2023/10/22 10:04:00;;;;;;;3.70;1.10;;;13.60;99.90;;;;;;5032386;28;20041;-78
2023/10/22 10:06:29;;;;;;;4.40;0.93;;;13.70;99.90;;;;;;5029584;28;20038;-78
2023/10/22 10:08:56;;;;;;;4.38;1.00;;;13.70;99.90;;;;;;5050894;28;20033;-78
2023/10/22 10:11:23;;;;;;;3.50;1.00;;;13.70;99.90;;;;;;5036210;28;20029;-78
2023/10/22 10:13:50;;;;;;;4.28;1.05;;;13.70;99.90;;;;;;5039564;28;20041;-78
2023/10/22 10:16:17;;;;;;;3.72;0.85;;;13.60;99.90;;;;;;5029293;28;20061;-78
2023/10/22 10:19:09;;;;;;;3.42;1.00;;;13.50;99.90;;;;;;5049331;28;20041;-78
2023/10/22 10:21:39;;;;;;;3.60;1.13;;;13.50;99.90;;;;;;5040220;28;20124;-78
2023/10/22 10:24:17;;;;;;;3.80;1.00;;;13.40;99.90;;;;;;5048221;28;20049;-79
2023/10/22 10:26:45;;;;;;;4.07;1.35;;;13.30;99.90;;;;;;5048914;28;20096;-78
2023/10/22 10:29:19;;;;;;;3.65;0.70;;;13.20;99.90;;;;;;5039151;28;20416;-79
2023/10/22 10:31:51;;;;;;;6.47;1.30;;;13.20;99.90;;;;;;5048464;28;20372;-78
2023/10/22 10:34:39;;;;;;;2.47;0.90;;;13.30;99.90;;;;;;5037320;28;20050;-78
2023/10/22 10:37:11;;;;;;;4.45;1.00;;;13.40;99.90;;;;;;5032670;28;20075;-78
2023/10/22 10:39:45;;;;;;;3.13;1.00;;;13.70;99.90;;;;;;5045335;28;20511;-78
2023/10/22 10:42:13;;;;;;;4.97;1.00;;;14.00;99.90;;;;;;5034882;28;20049;-78
2023/10/22 10:44:55;;;;;;;6.53;1.45;;;14.10;99.90;;;;;;5049420;28;20050;-77
2023/10/22 10:47:22;;;;;;;3.05;1.00;;;14.50;99.90;;;;;;5042739;28;20052;-77
2023/10/22 10:50:10;;;;;;;2.65;0.77;;;14.40;99.90;;;;;;5045843;28;20037;-78
2023/10/22 10:52:45;;;;;;;3.72;0.82;;;14.30;99.90;;;;;;5058737;28;20121;-78
2023/10/22 10:55:18;;;;;;;1.65;0.77;;;14.30;99.90;;;;;;5057080;28;20096;-78
2023/10/22 10:57:49;;;;;;;3.75;0.70;;;14.40;99.90;;;;;;5054951;28;20042;-78
2023/10/22 11:00:27;;;;;;;3.25;0.70;;;14.30;99.90;;;;;;5052062;28;20119;-78
2023/10/22 11:02:55;;;;;;;2.15;0.88;;;14.10;99.90;;;;;;5051758;28;20242;-78
2023/10/22 11:05:39;;;;;;;5.07;0.90;;;14.00;99.90;;;;;;5052604;28;20037;-78
2023/10/22 11:08:15;;;;;;;5.88;0.82;;;13.90;99.90;;;;;;5055216;28;20503;-78
2023/10/22 11:10:42;;;;;;;1.45;0.63;;;13.70;99.90;;;;;;5057969;28;20041;-78
2023/10/22 11:13:09;;;;;;;2.60;0.82;;;13.70;99.90;;;;;;5052394;28;20053;-78
2023/10/22 11:15:37;;;;;;;2.22;0.88;;;13.60;99.90;;;;;;5048111;28;20037;-78
2023/10/22 11:18:11;;;;;;;2.28;0.60;;;13.40;99.90;;;;;;5054902;28;20067;-77
2023/10/22 11:20:38;;;;;;;1.77;0.73;;;13.30;99.90;;;;;;5040158;28;20038;-78
2023/10/22 11:23:18;;;;;;;2.28;0.55;;;13.30;99.90;;;;;;5063026;28;20186;-78
2023/10/22 11:25:45;;;;;;;1.52;0.52;;;13.50;99.90;;;;;;5056386;28;20503;-77
2023/10/22 11:28:12;;;;;;;2.72;0.60;;;13.60;99.90;;;;;;5048296;28;20045;-78
2023/10/22 11:30:41;;;;;;;1.83;0.80;;;13.50;99.90;;;;;;5056119;28;20045;-78
2023/10/22 11:33:10;;;;;;;2.40;0.80;;;13.50;99.90;;;;;;5037320;28;20041;-78
2023/10/22 11:35:37;;;;;;;1.65;0.70;;;13.50;99.90;;;;;;5040152;28;20037;-78
2023/10/22 11:38:06;;;;;;;3.40;0.80;;;13.60;99.90;;;;;;5046668;28;20038;-77
2023/10/22 11:40:35;;;;;;;2.17;0.80;;;13.60;99.90;;;;;;5043308;28;20038;-78
2023/10/22 11:43:06;;;;;;;1.70;0.70;;;13.60;99.90;;;;;;5046415;28;20534;-78
2023/10/22 11:45:36;;;;;;;3.05;1.00;;;13.70;99.90;;;;;;5056229;28;20108;-78
2023/10/22 11:48:17;;;;;;;5.13;2.40;;;13.70;99.90;;;;;;5044924;28;20069;-78
2023/10/22 11:50:45;;;;;;;2.03;0.77;;;13.80;99.90;;;;;;5041003;28;20038;-78
2023/10/22 11:53:12;;;;;;;3.53;1.45;;;13.60;99.90;;;;;;5046887;28;20073;-78
2023/10/22 11:55:39;;;;;;;11.15;5.38;;;13.60;99.90;;;;;;5039926;28;20108;-78
2023/10/22 11:58:20;;;;;;;5.82;2.72;;;13.40;99.90;;;;;;5042863;28;20059;-79
2023/10/22 12:00:47;;;;;;;14.75;7.05;;;13.40;99.90;;;;;;5059800;28;20049;-78
2023/10/22 12:03:15;;;;;;;10.48;5.18;;;13.30;99.90;;;;;;5045447;28;20104;-78
2023/10/22 12:05:42;;;;;;;3.00;1.10;;;13.20;99.90;;;;;;5049972;28;20038;-78
2023/10/22 12:08:08;;;;;;;3.45;1.25;;;13.10;99.90;;;;;;5046063;28;20037;-78
2023/10/22 12:10:35;;;;;;;2.03;1.00;;;13.00;99.90;;;;;;5048735;28;20421;-78
2023/10/22 12:13:04;;;;;;;4.65;1.00;;;13.20;99.90;;;;;;5053663;28;20451;-78
2023/10/22 12:15:31;;;;;;;3.85;1.17;;;13.00;99.90;;;;;;5051591;28;20052;-78
2023/10/22 12:17:58;;;;;;;3.25;1.10;;;12.80;99.90;;;;;;5040388;28;20044;-77
2023/10/22 12:20:25;;;;;;;2.47;0.70;;;12.80;99.90;;;;;;5055624;28;20045;-78
2023/10/22 12:22:52;;;;;;;2.33;0.80;;;12.80;99.90;;;;;;5047682;28;20091;-78
2023/10/22 12:25:22;;;;;;;3.72;1.00;;;12.80;99.90;;;;;;5040469;28;20041;-78
2023/10/22 12:27:48;;;;;;;2.53;0.93;;;12.70;99.90;;;;;;5059261;28;20038;-78
2023/10/22 12:30:15;;;;;;;2.25;0.70;;;12.80;99.90;;;;;;5045961;28;20128;-78
2023/10/22 12:32:42;;;;;;;2.63;0.63;;;12.80;99.90;;;;;;5046870;28;20844;-79
2023/10/22 12:35:08;;;;;;;3.63;0.70;;;12.60;99.90;;;;;;5048806;28;20179;-78
2023/10/22 12:37:35;;;;;;;2.20;0.65;;;12.70;99.90;;;;;;5057464;28;20041;-79
2023/10/22 12:40:05;;;;;;;1.45;0.60;;;12.60;99.90;;;;;;5036389;28;20091;-78
2023/10/22 12:42:32;;;;;;;3.33;0.80;;;12.60;99.90;;;;;;5043424;28;20089;-78
2023/10/22 12:44:58;;;;;;;2.67;0.88;;;12.60;99.90;;;;;;5051870;28;20742;-79
2023/10/22 12:47:25;;;;;;;3.28;0.80;;;12.60;99.90;;;;;;5036041;28;20116;-79
2023/10/22 12:49:52;;;;;;;3.53;0.70;;;12.50;99.90;;;;;;5041673;28;20046;-79
2023/10/22 12:52:18;;;;;;;1.45;0.70;;;12.60;99.90;;;;;;5041068;28;20045;-79